sensor_id;sensor_type;location;lat;lon;timestamp;temperature;humidity
66144;SHT31;52947;50.842;6.084;2022-07-17T00:01:08;17.46;61.25
66144;SHT31;52947;50.842;6.084;2022-07-17T00:03:36;17.66;60.78
66144;SHT31;52947;50.842;6.084;2022-07-17T00:06:05;17.69;59.66
66144;SHT31;52947;50.842;6.084;2022-07-17T00:08:33;17.62;60.36
66144;SHT31;52947;50.842;6.084;2022-07-17T00:11:02;17.65;59.70
66144;SHT31;52947;50.842;6.084;2022-07-17T00:13:30;17.56;60.24
66144;SHT31;52947;50.842;6.084;2022-07-17T00:15:59;17.43;59.79
66144;SHT31;52947;50.842;6.084;2022-07-17T00:18:27;17.31;60.56
66144;SHT31;52947;50.842;6.084;2022-07-17T00:20:55;17.28;60.17
66144;SHT31;52947;50.842;6.084;2022-07-17T00:23:23;17.18;60.30
66144;SHT31;52947;50.842;6.084;2022-07-17T00:25:51;17.19;60.56
66144;SHT31;52947;50.842;6.084;2022-07-17T00:28:19;17.08;60.71
66144;SHT31;52947;50.842;6.084;2022-07-17T00:30:47;17.01;61.30
66144;SHT31;52947;50.842;6.084;2022-07-17T00:33:16;16.81;61.76
66144;SHT31;52947;50.842;6.084;2022-07-17T00:35:44;16.61;61.60
66144;SHT31;52947;50.842;6.084;2022-07-17T00:38:12;16.50;62.87
66144;SHT31;52947;50.842;6.084;2022-07-17T00:40:44;16.50;62.41
66144;SHT31;52947;50.842;6.084;2022-07-17T00:43:12;16.15;61.41
66144;SHT31;52947;50.842;6.084;2022-07-17T00:45:40;15.26;62.12
66144;SHT31;52947;50.842;6.084;2022-07-17T00:48:09;14.59;63.20
66144;SHT31;52947;50.842;6.084;2022-07-17T00:50:41;14.08;64.67
66144;SHT31;52947;50.842;6.084;2022-07-17T00:53:09;13.73;65.37
66144;SHT31;52947;50.842;6.084;2022-07-17T00:55:39;13.49;65.92
66144;SHT31;52947;50.842;6.084;2022-07-17T00:58:12;13.19;66.37
66144;SHT31;52947;50.842;6.084;2022-07-17T01:00:44;13.02;67.44
66144;SHT31;52947;50.842;6.084;2022-07-17T01:03:13;12.84;67.66
66144;SHT31;52947;50.842;6.084;2022-07-17T01:05:43;12.71;68.23
66144;SHT31;52947;50.842;6.084;2022-07-17T01:08:11;12.55;68.64
66144;SHT31;52947;50.842;6.084;2022-07-17T01:10:40;12.47;68.86
66144;SHT31;52947;50.842;6.084;2022-07-17T01:13:08;12.38;69.48
66144;SHT31;52947;50.842;6.084;2022-07-17T01:15:37;12.27;70.11
66144;SHT31;52947;50.842;6.084;2022-07-17T01:18:07;12.17;70.61
66144;SHT31;52947;50.842;6.084;2022-07-17T01:20:37;12.09;70.68
66144;SHT31;52947;50.842;6.084;2022-07-17T01:23:06;12.06;71.18
66144;SHT31;52947;50.842;6.084;2022-07-17T01:25:35;12.07;71.68
66144;SHT31;52947;50.842;6.084;2022-07-17T01:28:04;12.02;71.83
66144;SHT31;52947;50.842;6.084;2022-07-17T01:30:32;12.02;72.16
66144;SHT31;52947;50.842;6.084;2022-07-17T01:33:01;12.04;71.93
66144;SHT31;52947;50.842;6.084;2022-07-17T01:35:30;12.17;72.04
66144;SHT31;52947;50.842;6.084;2022-07-17T01:37:58;12.13;71.34
66144;SHT31;52947;50.842;6.084;2022-07-17T01:40:28;12.03;71.24
66144;SHT31;52947;50.842;6.084;2022-07-17T01:42:55;11.92;71.68
66144;SHT31;52947;50.842;6.084;2022-07-17T01:45:23;11.79;71.93
66144;SHT31;52947;50.842;6.084;2022-07-17T01:47:51;11.68;72.83
66144;SHT31;52947;50.842;6.084;2022-07-17T01:50:19;11.59;73.18
66144;SHT31;52947;50.842;6.084;2022-07-17T01:52:47;11.46;73.48
66144;SHT31;52947;50.842;6.084;2022-07-17T01:55:15;11.36;73.62
66144;SHT31;52947;50.842;6.084;2022-07-17T01:57:45;11.30;73.94
66144;SHT31;52947;50.842;6.084;2022-07-17T02:00:13;11.21;73.89
66144;SHT31;52947;50.842;6.084;2022-07-17T02:02:43;11.14;74.20
66144;SHT31;52947;50.842;6.084;2022-07-17T02:05:11;11.15;74.79
66144;SHT31;52947;50.842;6.084;2022-07-17T02:07:39;11.18;75.42
66144;SHT31;52947;50.842;6.084;2022-07-17T02:10:08;11.20;75.41
66144;SHT31;52947;50.842;6.084;2022-07-17T02:12:37;11.15;74.87
66144;SHT31;52947;50.842;6.084;2022-07-17T02:15:07;11.20;75.74
66144;SHT31;52947;50.842;6.084;2022-07-17T02:17:37;11.22;75.55
66144;SHT31;52947;50.842;6.084;2022-07-17T02:20:06;11.20;75.17
66144;SHT31;52947;50.842;6.084;2022-07-17T02:22:35;11.39;76.08
66144;SHT31;52947;50.842;6.084;2022-07-17T02:25:05;11.57;75.41
66144;SHT31;52947;50.842;6.084;2022-07-17T02:27:34;11.58;75.19
66144;SHT31;52947;50.842;6.084;2022-07-17T02:30:02;11.58;75.13
66144;SHT31;52947;50.842;6.084;2022-07-17T02:32:32;11.57;75.00
66144;SHT31;52947;50.842;6.084;2022-07-17T02:35:00;11.49;74.96
66144;SHT31;52947;50.842;6.084;2022-07-17T02:37:27;11.42;74.57
66144;SHT31;52947;50.842;6.084;2022-07-17T02:39:55;11.28;74.28
66144;SHT31;52947;50.842;6.084;2022-07-17T02:42:26;11.20;75.46
66144;SHT31;52947;50.842;6.084;2022-07-17T02:44:55;11.11;75.44
66144;SHT31;52947;50.842;6.084;2022-07-17T02:47:25;10.99;75.50
66144;SHT31;52947;50.842;6.084;2022-07-17T02:49:54;10.87;76.45
66144;SHT31;52947;50.842;6.084;2022-07-17T02:52:22;11.07;83.05
66144;SHT31;52947;50.842;6.084;2022-07-17T02:54:50;12.51;83.81
66144;SHT31;52947;50.842;6.084;2022-07-17T02:57:18;13.56;77.58
66144;SHT31;52947;50.842;6.084;2022-07-17T02:59:46;14.13;74.17
66144;SHT31;52947;50.842;6.084;2022-07-17T03:02:14;14.49;72.79
66144;SHT31;52947;50.842;6.084;2022-07-17T03:04:42;14.80;71.18
66144;SHT31;52947;50.842;6.084;2022-07-17T03:07:11;14.93;71.43
66144;SHT31;52947;50.842;6.084;2022-07-17T03:09:39;15.08;69.35
66144;SHT31;52947;50.842;6.084;2022-07-17T03:12:07;15.40;69.03
66144;SHT31;52947;50.842;6.084;2022-07-17T03:14:35;15.31;67.77
66144;SHT31;52947;50.842;6.084;2022-07-17T03:17:03;15.33;68.06
66144;SHT31;52947;50.842;6.084;2022-07-17T03:19:31;15.28;67.60
66144;SHT31;52947;50.842;6.084;2022-07-17T03:21:59;15.11;67.37
66144;SHT31;52947;50.842;6.084;2022-07-17T03:24:28;15.07;68.73
66144;SHT31;52947;50.842;6.084;2022-07-17T03:26:56;15.27;68.19
66144;SHT31;52947;50.842;6.084;2022-07-17T03:29:25;15.26;67.16
66144;SHT31;52947;50.842;6.084;2022-07-17T03:31:53;14.86;66.72
66144;SHT31;52947;50.842;6.084;2022-07-17T03:34:21;14.38;68.60
66144;SHT31;52947;50.842;6.084;2022-07-17T03:36:49;14.26;67.89
66144;SHT31;52947;50.842;6.084;2022-07-17T03:39:17;13.63;69.78
66144;SHT31;52947;50.842;6.084;2022-07-17T03:41:46;13.60;70.24
66144;SHT31;52947;50.842;6.084;2022-07-17T03:44:14;13.77;70.90
66144;SHT31;52947;50.842;6.084;2022-07-17T03:46:42;14.41;69.83
66144;SHT31;52947;50.842;6.084;2022-07-17T03:49:09;14.79;68.91
66144;SHT31;52947;50.842;6.084;2022-07-17T03:51:38;14.87;68.21
66144;SHT31;52947;50.842;6.084;2022-07-17T03:54:06;14.80;68.15
66144;SHT31;52947;50.842;6.084;2022-07-17T03:56:34;14.59;67.52
66144;SHT31;52947;50.842;6.084;2022-07-17T03:59:03;14.54;68.19
66144;SHT31;52947;50.842;6.084;2022-07-17T04:01:31;14.56;68.07
66144;SHT31;52947;50.842;6.084;2022-07-17T04:03:59;14.77;66.73
66144;SHT31;52947;50.842;6.084;2022-07-17T04:06:27;15.11;66.53
66144;SHT31;52947;50.842;6.084;2022-07-17T04:08:55;15.37;66.07
66144;SHT31;52947;50.842;6.084;2022-07-17T04:11:23;15.43;65.71
66144;SHT31;52947;50.842;6.084;2022-07-17T04:13:51;15.00;65.80
66144;SHT31;52947;50.842;6.084;2022-07-17T04:16:21;14.77;66.97
66144;SHT31;52947;50.842;6.084;2022-07-17T04:18:49;14.66;67.30
66144;SHT31;52947;50.842;6.084;2022-07-17T04:21:18;14.73;67.81
66144;SHT31;52947;50.842;6.084;2022-07-17T04:23:46;14.79;67.34
66144;SHT31;52947;50.842;6.084;2022-07-17T04:26:14;14.71;67.62
66144;SHT31;52947;50.842;6.084;2022-07-17T04:28:42;14.77;67.37
66144;SHT31;52947;50.842;6.084;2022-07-17T04:31:10;14.73;67.56
66144;SHT31;52947;50.842;6.084;2022-07-17T04:33:39;14.59;68.00
66144;SHT31;52947;50.842;6.084;2022-07-17T04:36:07;14.49;68.30
66144;SHT31;52947;50.842;6.084;2022-07-17T04:38:35;14.56;67.80
66144;SHT31;52947;50.842;6.084;2022-07-17T04:41:03;14.71;67.69
66144;SHT31;52947;50.842;6.084;2022-07-17T04:43:31;14.87;67.42
66144;SHT31;52947;50.842;6.084;2022-07-17T04:45:59;14.77;65.85
66144;SHT31;52947;50.842;6.084;2022-07-17T04:48:27;15.00;66.59
66144;SHT31;52947;50.842;6.084;2022-07-17T04:50:56;14.92;66.57
66144;SHT31;52947;50.842;6.084;2022-07-17T04:53:23;14.90;66.97
66144;SHT31;52947;50.842;6.084;2022-07-17T04:55:51;14.92;67.11
66144;SHT31;52947;50.842;6.084;2022-07-17T04:58:19;15.13;66.38
66144;SHT31;52947;50.842;6.084;2022-07-17T05:00:47;15.71;64.97
66144;SHT31;52947;50.842;6.084;2022-07-17T05:03:15;16.34;63.51
66144;SHT31;52947;50.842;6.084;2022-07-17T05:05:43;17.04;62.19
66144;SHT31;52947;50.842;6.084;2022-07-17T05:08:12;17.68;59.99
66144;SHT31;52947;50.842;6.084;2022-07-17T05:10:40;18.34;59.43
66144;SHT31;52947;50.842;6.084;2022-07-17T05:13:08;19.06;56.64
66144;SHT31;52947;50.842;6.084;2022-07-17T05:15:36;19.50;55.80
66144;SHT31;52947;50.842;6.084;2022-07-17T05:18:06;19.83;55.02
66144;SHT31;52947;50.842;6.084;2022-07-17T05:20:35;20.17;54.72
66144;SHT31;52947;50.842;6.084;2022-07-17T05:23:03;20.57;53.77
66144;SHT31;52947;50.842;6.084;2022-07-17T05:25:32;21.26;52.11
66144;SHT31;52947;50.842;6.084;2022-07-17T05:28:00;22.02;50.01
66144;SHT31;52947;50.842;6.084;2022-07-17T05:30:29;22.40;49.72
66144;SHT31;52947;50.842;6.084;2022-07-17T05:32:57;22.59;48.56
66144;SHT31;52947;50.842;6.084;2022-07-17T05:35:25;23.46;47.48
66144;SHT31;52947;50.842;6.084;2022-07-17T05:37:52;24.03;46.58
66144;SHT31;52947;50.842;6.084;2022-07-17T05:40:20;24.36;45.61
66144;SHT31;52947;50.842;6.084;2022-07-17T05:42:49;23.85;45.95
66144;SHT31;52947;50.842;6.084;2022-07-17T05:45:17;24.67;45.02
66144;SHT31;52947;50.842;6.084;2022-07-17T05:47:45;25.14;43.82
66144;SHT31;52947;50.842;6.084;2022-07-17T05:50:13;25.63;42.78
66144;SHT31;52947;50.842;6.084;2022-07-17T05:52:41;25.91;42.40
66144;SHT31;52947;50.842;6.084;2022-07-17T05:55:09;25.67;42.63
66144;SHT31;52947;50.842;6.084;2022-07-17T05:57:37;26.08;40.62
66144;SHT31;52947;50.842;6.084;2022-07-17T06:00:07;26.90;39.36
66144;SHT31;52947;50.842;6.084;2022-07-17T06:02:38;27.24;38.20
66144;SHT31;52947;50.842;6.084;2022-07-17T06:05:06;27.44;38.48
66144;SHT31;52947;50.842;6.084;2022-07-17T06:07:34;27.64;37.78
66144;SHT31;52947;50.842;6.084;2022-07-17T06:10:03;27.80;37.22
66144;SHT31;52947;50.842;6.084;2022-07-17T06:12:30;28.23;37.58
66144;SHT31;52947;50.842;6.084;2022-07-17T06:14:58;29.21;36.20
66144;SHT31;52947;50.842;6.084;2022-07-17T06:17:28;29.30;35.98
66144;SHT31;52947;50.842;6.084;2022-07-17T06:19:56;30.23;34.45
66144;SHT31;52947;50.842;6.084;2022-07-17T06:22:24;30.30;33.83
66144;SHT31;52947;50.842;6.084;2022-07-17T06:24:51;30.84;33.55
66144;SHT31;52947;50.842;6.084;2022-07-17T06:27:19;31.35;32.36
66144;SHT31;52947;50.842;6.084;2022-07-17T06:29:47;30.85;32.71
66144;SHT31;52947;50.842;6.084;2022-07-17T06:32:22;31.96;31.80
66144;SHT31;52947;50.842;6.084;2022-07-17T06:34:52;32.23;31.60
66144;SHT31;52947;50.842;6.084;2022-07-17T06:37:20;32.33;30.92
66144;SHT31;52947;50.842;6.084;2022-07-17T06:39:48;32.17;31.24
66144;SHT31;52947;50.842;6.084;2022-07-17T06:42:15;32.03;31.39
66144;SHT31;52947;50.842;6.084;2022-07-17T06:44:43;31.29;31.68
66144;SHT31;52947;50.842;6.084;2022-07-17T06:47:11;31.35;32.62
66144;SHT31;52947;50.842;6.084;2022-07-17T06:49:39;31.56;32.02
66144;SHT31;52947;50.842;6.084;2022-07-17T06:52:08;32.02;31.69
66144;SHT31;52947;50.842;6.084;2022-07-17T06:54:36;32.75;29.76
66144;SHT31;52947;50.842;6.084;2022-07-17T06:57:04;32.92;30.23
66144;SHT31;52947;50.842;6.084;2022-07-17T06:59:32;33.25;29.98
66144;SHT31;52947;50.842;6.084;2022-07-17T07:02:00;33.81;28.86
66144;SHT31;52947;50.842;6.084;2022-07-17T07:04:28;34.21;28.92
66144;SHT31;52947;50.842;6.084;2022-07-17T07:06:56;34.38;28.15
66144;SHT31;52947;50.842;6.084;2022-07-17T07:09:25;34.62;28.37
66144;SHT31;52947;50.842;6.084;2022-07-17T07:11:53;34.94;28.08
66144;SHT31;52947;50.842;6.084;2022-07-17T07:14:21;35.39;27.54
66144;SHT31;52947;50.842;6.084;2022-07-17T07:16:49;35.06;27.70
66144;SHT31;52947;50.842;6.084;2022-07-17T07:19:17;35.47;27.38
66144;SHT31;52947;50.842;6.084;2022-07-17T07:21:45;35.16;27.92
66144;SHT31;52947;50.842;6.084;2022-07-17T07:24:13;34.37;28.20
66144;SHT31;52947;50.842;6.084;2022-07-17T07:26:42;35.32;27.28
66144;SHT31;52947;50.842;6.084;2022-07-17T07:29:10;36.49;26.31
66144;SHT31;52947;50.842;6.084;2022-07-17T07:31:43;36.05;27.05
66144;SHT31;52947;50.842;6.084;2022-07-17T07:34:10;36.01;26.96
66144;SHT31;52947;50.842;6.084;2022-07-17T07:36:38;36.49;26.27
66144;SHT31;52947;50.842;6.084;2022-07-17T07:39:06;37.24;25.95
66144;SHT31;52947;50.842;6.084;2022-07-17T07:41:34;37.02;25.55
66144;SHT31;52947;50.842;6.084;2022-07-17T07:44:04;36.87;26.20
66144;SHT31;52947;50.842;6.084;2022-07-17T07:46:32;36.64;25.57
66144;SHT31;52947;50.842;6.084;2022-07-17T07:49:01;36.75;25.61
66144;SHT31;52947;50.842;6.084;2022-07-17T07:51:28;36.90;25.71
66144;SHT31;52947;50.842;6.084;2022-07-17T07:54:16;36.48;25.52
66144;SHT31;52947;50.842;6.084;2022-07-17T07:56:44;36.92;25.53
66144;SHT31;52947;50.842;6.084;2022-07-17T07:59:13;37.57;24.92
66144;SHT31;52947;50.842;6.084;2022-07-17T08:01:41;38.08;24.15
66144;SHT31;52947;50.842;6.084;2022-07-17T08:04:09;37.34;24.73
66144;SHT31;52947;50.842;6.084;2022-07-17T08:06:36;36.69;24.84
66144;SHT31;52947;50.842;6.084;2022-07-17T08:09:05;37.06;24.75
66144;SHT31;52947;50.842;6.084;2022-07-17T08:11:32;37.10;24.95
66144;SHT31;52947;50.842;6.084;2022-07-17T08:14:00;37.24;24.30
66144;SHT31;52947;50.842;6.084;2022-07-17T08:16:36;37.55;23.37
66144;SHT31;52947;50.842;6.084;2022-07-17T08:19:05;37.65;23.26
66144;SHT31;52947;50.842;6.084;2022-07-17T08:21:33;37.43;24.07
66144;SHT31;52947;50.842;6.084;2022-07-17T08:24:00;36.68;24.91
66144;SHT31;52947;50.842;6.084;2022-07-17T08:26:28;37.30;24.26
66144;SHT31;52947;50.842;6.084;2022-07-17T08:28:56;36.85;25.01
66144;SHT31;52947;50.842;6.084;2022-07-17T08:31:25;37.37;23.48
66144;SHT31;52947;50.842;6.084;2022-07-17T08:33:54;36.79;23.87
66144;SHT31;52947;50.842;6.084;2022-07-17T08:36:22;36.46;24.31
66144;SHT31;52947;50.842;6.084;2022-07-17T08:38:50;36.51;24.83
66144;SHT31;52947;50.842;6.084;2022-07-17T08:41:17;37.27;24.07
66144;SHT31;52947;50.842;6.084;2022-07-17T08:43:48;36.90;24.75
66144;SHT31;52947;50.842;6.084;2022-07-17T08:46:17;36.53;24.03
66144;SHT31;52947;50.842;6.084;2022-07-17T08:48:46;37.09;24.24
66144;SHT31;52947;50.842;6.084;2022-07-17T08:51:16;37.02;24.59
66144;SHT31;52947;50.842;6.084;2022-07-17T08:53:45;35.88;25.34
66144;SHT31;52947;50.842;6.084;2022-07-17T08:56:13;36.32;25.25
66144;SHT31;52947;50.842;6.084;2022-07-17T08:58:41;36.09;24.69
66144;SHT31;52947;50.842;6.084;2022-07-17T09:01:08;34.55;25.62
66144;SHT31;52947;50.842;6.084;2022-07-17T09:03:36;34.81;25.76
66144;SHT31;52947;50.842;6.084;2022-07-17T09:06:19;34.23;26.03
66144;SHT31;52947;50.842;6.084;2022-07-17T09:08:48;35.63;24.78
66144;SHT31;52947;50.842;6.084;2022-07-17T09:11:16;35.74;24.44
66144;SHT31;52947;50.842;6.084;2022-07-17T09:13:45;35.87;25.04
66144;SHT31;52947;50.842;6.084;2022-07-17T09:16:13;36.09;24.08
66144;SHT31;52947;50.842;6.084;2022-07-17T09:18:43;35.91;24.08
66144;SHT31;52947;50.842;6.084;2022-07-17T09:21:17;36.20;24.11
66144;SHT31;52947;50.842;6.084;2022-07-17T09:23:57;36.31;23.67
66144;SHT31;52947;50.842;6.084;2022-07-17T09:26:25;35.42;25.01
66144;SHT31;52947;50.842;6.084;2022-07-17T09:28:54;34.84;25.33
66144;SHT31;52947;50.842;6.084;2022-07-17T09:31:26;34.91;24.96
66144;SHT31;52947;50.842;6.084;2022-07-17T09:33:54;34.92;24.72
66144;SHT31;52947;50.842;6.084;2022-07-17T09:36:22;35.60;23.76
66144;SHT31;52947;50.842;6.084;2022-07-17T09:38:54;34.99;24.28
66144;SHT31;52947;50.842;6.084;2022-07-17T09:41:23;34.56;24.29
66144;SHT31;52947;50.842;6.084;2022-07-17T09:43:54;34.34;24.50
66144;SHT31;52947;50.842;6.084;2022-07-17T09:46:25;33.78;26.95
66144;SHT31;52947;50.842;6.084;2022-07-17T09:48:56;33.06;27.50
66144;SHT31;52947;50.842;6.084;2022-07-17T09:51:26;33.76;27.46
66144;SHT31;52947;50.842;6.084;2022-07-17T09:53:57;33.62;26.49
66144;SHT31;52947;50.842;6.084;2022-07-17T09:56:28;33.59;26.51
66144;SHT31;52947;50.842;6.084;2022-07-17T09:59:01;33.64;27.68
66144;SHT31;52947;50.842;6.084;2022-07-17T10:01:29;33.92;26.15
66144;SHT31;52947;50.842;6.084;2022-07-17T10:04:00;33.52;26.90
66144;SHT31;52947;50.842;6.084;2022-07-17T10:06:28;32.95;28.07
66144;SHT31;52947;50.842;6.084;2022-07-17T10:08:58;33.19;26.49
66144;SHT31;52947;50.842;6.084;2022-07-17T10:11:28;33.59;25.83
66144;SHT31;52947;50.842;6.084;2022-07-17T10:14:02;32.86;26.31
66144;SHT31;52947;50.842;6.084;2022-07-17T10:16:33;32.71;26.51
66144;SHT31;52947;50.842;6.084;2022-07-17T10:19:03;33.05;26.50
66144;SHT31;52947;50.842;6.084;2022-07-17T10:21:52;33.12;25.83
66144;SHT31;52947;50.842;6.084;2022-07-17T10:24:22;33.19;26.06
66144;SHT31;52947;50.842;6.084;2022-07-17T10:26:50;33.09;26.61
66144;SHT31;52947;50.842;6.084;2022-07-17T10:29:30;33.63;25.81
66144;SHT31;52947;50.842;6.084;2022-07-17T10:31:59;33.60;26.12
66144;SHT31;52947;50.842;6.084;2022-07-17T10:34:43;33.67;26.11
66144;SHT31;52947;50.842;6.084;2022-07-17T10:37:19;32.92;27.05
66144;SHT31;52947;50.842;6.084;2022-07-17T10:40:06;33.36;26.59
66144;SHT31;52947;50.842;6.084;2022-07-17T10:45:25;33.16;27.16
66144;SHT31;52947;50.842;6.084;2022-07-17T10:47:56;33.16;27.42
66144;SHT31;52947;50.842;6.084;2022-07-17T10:50:27;33.22;26.98
66144;SHT31;52947;50.842;6.084;2022-07-17T10:53:01;33.80;26.07
66144;SHT31;52947;50.842;6.084;2022-07-17T10:55:31;33.80;26.57
66144;SHT31;52947;50.842;6.084;2022-07-17T10:58:00;33.59;25.96
66144;SHT31;52947;50.842;6.084;2022-07-17T11:00:31;33.25;26.51
66144;SHT31;52947;50.842;6.084;2022-07-17T11:03:08;33.53;26.81
66144;SHT31;52947;50.842;6.084;2022-07-17T11:05:37;33.05;27.14
66144;SHT31;52947;50.842;6.084;2022-07-17T11:08:05;33.97;25.50
66144;SHT31;52947;50.842;6.084;2022-07-17T11:10:37;33.60;26.12
66144;SHT31;52947;50.842;6.084;2022-07-17T11:13:09;34.14;26.38
66144;SHT31;52947;50.842;6.084;2022-07-17T11:15:40;34.13;25.79
66144;SHT31;52947;50.842;6.084;2022-07-17T11:18:11;34.27;25.57
66144;SHT31;52947;50.842;6.084;2022-07-17T11:20:47;33.87;26.20
66144;SHT31;52947;50.842;6.084;2022-07-17T11:23:15;33.63;26.27
66144;SHT31;52947;50.842;6.084;2022-07-17T11:25:57;33.23;26.11
66144;SHT31;52947;50.842;6.084;2022-07-17T11:28:33;33.49;25.55
66144;SHT31;52947;50.842;6.084;2022-07-17T11:31:04;34.13;25.51
66144;SHT31;52947;50.842;6.084;2022-07-17T11:33:32;33.73;26.14
66144;SHT31;52947;50.842;6.084;2022-07-17T11:36:00;33.59;26.22
66144;SHT31;52947;50.842;6.084;2022-07-17T11:38:29;33.86;25.94
66144;SHT31;52947;50.842;6.084;2022-07-17T11:40:59;33.78;26.25
66144;SHT31;52947;50.842;6.084;2022-07-17T11:43:28;34.55;25.39
66144;SHT31;52947;50.842;6.084;2022-07-17T11:46:07;34.40;25.28
66144;SHT31;52947;50.842;6.084;2022-07-17T11:48:35;34.03;25.63
66144;SHT31;52947;50.842;6.084;2022-07-17T11:51:03;33.98;25.82
66144;SHT31;52947;50.842;6.084;2022-07-17T11:53:33;34.15;25.32
66144;SHT31;52947;50.842;6.084;2022-07-17T11:56:03;32.71;27.36
66144;SHT31;52947;50.842;6.084;2022-07-17T11:58:41;32.75;26.12
66144;SHT31;52947;50.842;6.084;2022-07-17T12:01:10;32.61;27.15
66144;SHT31;52947;50.842;6.084;2022-07-17T12:03:38;32.54;27.13
66144;SHT31;52947;50.842;6.084;2022-07-17T12:06:07;33.37;25.97
66144;SHT31;52947;50.842;6.084;2022-07-17T12:08:35;33.80;25.03
66144;SHT31;52947;50.842;6.084;2022-07-17T12:11:06;33.25;26.47
66144;SHT31;52947;50.842;6.084;2022-07-17T12:13:45;32.95;25.74
66144;SHT31;52947;50.842;6.084;2022-07-17T12:16:24;32.95;26.30
66144;SHT31;52947;50.842;6.084;2022-07-17T12:19:02;32.41;26.22
66144;SHT31;52947;50.842;6.084;2022-07-17T12:21:32;33.12;24.27
66144;SHT31;52947;50.842;6.084;2022-07-17T12:24:02;33.43;24.76
66144;SHT31;52947;50.842;6.084;2022-07-17T12:26:34;33.42;25.00
66144;SHT31;52947;50.842;6.084;2022-07-17T12:29:02;32.37;26.82
66144;SHT31;52947;50.842;6.084;2022-07-17T12:31:30;32.63;25.90
66144;SHT31;52947;50.842;6.084;2022-07-17T12:33:58;33.19;26.26
66144;SHT31;52947;50.842;6.084;2022-07-17T12:36:26;32.35;26.62
66144;SHT31;52947;50.842;6.084;2022-07-17T12:38:54;32.51;26.27
66144;SHT31;52947;50.842;6.084;2022-07-17T12:41:22;31.85;28.32
66144;SHT31;52947;50.842;6.084;2022-07-17T12:43:51;31.05;28.05
66144;SHT31;52947;50.842;6.084;2022-07-17T12:46:19;31.39;28.75
66144;SHT31;52947;50.842;6.084;2022-07-17T12:48:47;31.66;27.37
66144;SHT31;52947;50.842;6.084;2022-07-17T12:51:15;31.80;27.98
66144;SHT31;52947;50.842;6.084;2022-07-17T12:53:45;31.62;27.79
66144;SHT31;52947;50.842;6.084;2022-07-17T12:56:13;31.70;26.98
66144;SHT31;52947;50.842;6.084;2022-07-17T12:58:41;31.90;27.25
66144;SHT31;52947;50.842;6.084;2022-07-17T13:01:10;32.00;26.38
66144;SHT31;52947;50.842;6.084;2022-07-17T13:03:38;31.97;26.72
66144;SHT31;52947;50.842;6.084;2022-07-17T13:06:07;32.16;25.90
66144;SHT31;52947;50.842;6.084;2022-07-17T13:08:35;31.42;28.30
66144;SHT31;52947;50.842;6.084;2022-07-17T13:11:04;31.39;26.81
66144;SHT31;52947;50.842;6.084;2022-07-17T13:13:37;30.91;27.32
66144;SHT31;52947;50.842;6.084;2022-07-17T13:16:10;30.33;28.13
66144;SHT31;52947;50.842;6.084;2022-07-17T13:18:40;30.77;28.44
66144;SHT31;52947;50.842;6.084;2022-07-17T13:21:08;30.67;28.22
66144;SHT31;52947;50.842;6.084;2022-07-17T13:23:39;30.47;27.05
66144;SHT31;52947;50.842;6.084;2022-07-17T13:26:07;30.17;27.37
66144;SHT31;52947;50.842;6.084;2022-07-17T13:28:44;30.26;28.44
66144;SHT31;52947;50.842;6.084;2022-07-17T13:31:14;30.13;28.87
66144;SHT31;52947;50.842;6.084;2022-07-17T13:33:42;29.99;29.20
66144;SHT31;52947;50.842;6.084;2022-07-17T13:36:10;29.24;29.46
66144;SHT31;52947;50.842;6.084;2022-07-17T13:38:38;29.27;29.37
66144;SHT31;52947;50.842;6.084;2022-07-17T13:41:05;28.51;29.69
66144;SHT31;52947;50.842;6.084;2022-07-17T13:43:33;28.33;29.33
66144;SHT31;52947;50.842;6.084;2022-07-17T13:46:02;28.89;29.34
66144;SHT31;52947;50.842;6.084;2022-07-17T13:48:31;29.04;29.04
66144;SHT31;52947;50.842;6.084;2022-07-17T13:51:00;29.17;29.38
66144;SHT31;52947;50.842;6.084;2022-07-17T13:53:28;29.07;28.70
66144;SHT31;52947;50.842;6.084;2022-07-17T13:55:57;28.52;29.31
66144;SHT31;52947;50.842;6.084;2022-07-17T13:58:25;28.72;28.80
66144;SHT31;52947;50.842;6.084;2022-07-17T14:00:52;28.66;28.73
66144;SHT31;52947;50.842;6.084;2022-07-17T14:03:20;28.18;29.39
66144;SHT31;52947;50.842;6.084;2022-07-17T14:05:51;28.11;30.11
66144;SHT31;52947;50.842;6.084;2022-07-17T14:08:19;27.94;30.11
66144;SHT31;52947;50.842;6.084;2022-07-17T14:10:46;27.57;30.45
66144;SHT31;52947;50.842;6.084;2022-07-17T14:13:14;27.46;30.70
66144;SHT31;52947;50.842;6.084;2022-07-17T14:15:42;27.47;32.29
66144;SHT31;52947;50.842;6.084;2022-07-17T14:18:10;27.91;30.19
66144;SHT31;52947;50.842;6.084;2022-07-17T14:20:38;28.09;30.48
66144;SHT31;52947;50.842;6.084;2022-07-17T14:23:08;28.28;31.00
66144;SHT31;52947;50.842;6.084;2022-07-17T14:25:35;28.19;31.11
66144;SHT31;52947;50.842;6.084;2022-07-17T14:28:09;27.74;31.04
66144;SHT31;52947;50.842;6.084;2022-07-17T14:30:37;27.76;31.75
66144;SHT31;52947;50.842;6.084;2022-07-17T14:33:05;27.65;32.01
66144;SHT31;52947;50.842;6.084;2022-07-17T14:35:33;27.88;31.31
66144;SHT31;52947;50.842;6.084;2022-07-17T14:38:01;28.01;30.21
66144;SHT31;52947;50.842;6.084;2022-07-17T14:40:32;28.12;30.45
66144;SHT31;52947;50.842;6.084;2022-07-17T14:43:00;27.22;30.50
66144;SHT31;52947;50.842;6.084;2022-07-17T14:45:28;27.04;31.41
66144;SHT31;52947;50.842;6.084;2022-07-17T14:47:56;27.09;31.75
66144;SHT31;52947;50.842;6.084;2022-07-17T14:50:24;27.41;30.50
66144;SHT31;52947;50.842;6.084;2022-07-17T14:52:52;27.43;30.41
66144;SHT31;52947;50.842;6.084;2022-07-17T14:55:20;26.95;30.61
66144;SHT31;52947;50.842;6.084;2022-07-17T14:57:53;27.09;29.55
66144;SHT31;52947;50.842;6.084;2022-07-17T15:00:21;27.31;30.07
66144;SHT31;52947;50.842;6.084;2022-07-17T15:02:49;27.37;29.97
66144;SHT31;52947;50.842;6.084;2022-07-17T15:05:18;27.30;31.25
66144;SHT31;52947;50.842;6.084;2022-07-17T15:07:46;27.16;31.59
66144;SHT31;52947;50.842;6.084;2022-07-17T15:10:14;27.43;30.72
66144;SHT31;52947;50.842;6.084;2022-07-17T15:12:43;27.31;30.89
66144;SHT31;52947;50.842;6.084;2022-07-17T15:15:12;27.41;31.30
66144;SHT31;52947;50.842;6.084;2022-07-17T15:17:40;27.58;33.74
66144;SHT31;52947;50.842;6.084;2022-07-17T15:20:09;27.09;32.90
66144;SHT31;52947;50.842;6.084;2022-07-17T15:22:37;27.24;32.62
66144;SHT31;52947;50.842;6.084;2022-07-17T15:25:06;27.47;33.66
66144;SHT31;52947;50.842;6.084;2022-07-17T15:27:34;27.47;33.45
66144;SHT31;52947;50.842;6.084;2022-07-17T15:30:03;27.39;33.79
66144;SHT31;52947;50.842;6.084;2022-07-17T15:32:32;27.39;34.12
66144;SHT31;52947;50.842;6.084;2022-07-17T15:35:01;27.50;33.67
66144;SHT31;52947;50.842;6.084;2022-07-17T15:37:30;27.51;34.20
66144;SHT31;52947;50.842;6.084;2022-07-17T15:39:58;27.44;35.11
66144;SHT31;52947;50.842;6.084;2022-07-17T15:42:26;27.54;34.22
66144;SHT31;52947;50.842;6.084;2022-07-17T15:44:55;27.68;33.54